createdAt,value
2019-04-22T00:02:15.171Z,97503.00
2019-04-22T00:04:56.109Z,97503.00
2019-04-22T00:07:44.968Z,97519.00
2019-04-22T00:10:11.802Z,97511.00
2019-04-22T00:12:49.992Z,97495.00
2019-04-22T00:15:10.055Z,97503.00
2019-04-22T00:17:56.250Z,97496.00
2019-04-22T00:20:22.428Z,97489.00
2019-04-22T00:22:52.290Z,97493.00
2019-04-22T00:25:26.639Z,97493.00
2019-04-22T00:27:56.984Z,97485.00
2019-04-22T00:30:25.470Z,97487.00
2019-04-22T00:33:08.005Z,97502.00
2019-04-22T00:35:41.327Z,97487.00
2019-04-22T00:38:17.668Z,97484.00
2019-04-22T00:40:44.729Z,97486.00
2019-04-22T00:43:19.226Z,97485.00
2019-04-22T00:48:20.674Z,97491.00
2019-04-22T00:51:01.771Z,97479.00
2019-04-22T00:53:29.826Z,97487.00
2019-04-22T00:58:40.975Z,97469.00
2019-04-22T01:01:17.393Z,97470.00
2019-04-22T01:03:50.988Z,97470.00
2019-04-22T01:06:16.109Z,97459.00
2019-04-22T01:08:56.412Z,97459.00
2019-04-22T01:11:25.192Z,97452.00
2019-04-22T01:13:46.900Z,97455.00
2019-04-22T01:16:21.635Z,97455.00
2019-04-22T01:18:49.212Z,97467.00
2019-04-22T01:23:56.594Z,97437.00
2019-04-22T01:26:21.541Z,97439.00
2019-04-22T01:28:53.656Z,97433.00
2019-04-22T01:31:20.329Z,97436.00
2019-04-22T01:34:04.619Z,97425.00
2019-04-22T01:36:35.233Z,97432.00
2019-04-22T01:39:16.778Z,97427.00
2019-04-22T01:41:55.286Z,97416.00
2019-04-22T01:44:24.199Z,97422.00
2019-04-22T01:46:49.438Z,97425.00
2019-04-22T01:49:25.676Z,97426.00
2019-04-22T01:52:05.071Z,97413.00
2019-04-22T02:15:06.611Z,97402.00
2019-04-22T02:17:39.831Z,97401.00
2019-04-22T02:20:12.313Z,97391.00
2019-04-22T02:23:40.270Z,97397.00
2019-04-22T02:25:49.717Z,97389.00
2019-04-22T02:28:26.043Z,97399.00
2019-04-22T02:43:51.959Z,97376.00
2019-04-22T02:46:30.027Z,97376.00
2019-04-22T02:48:53.305Z,97371.00
2019-04-22T02:51:17.065Z,97375.00
2019-04-22T02:56:27.588Z,97374.00
2019-04-22T03:09:18.503Z,97352.00
2019-04-22T03:11:34.292Z,97355.00
2019-04-22T03:16:33.219Z,97351.00
2019-04-22T03:19:05.114Z,97343.00
2019-04-22T03:21:31.781Z,97347.00
2019-04-22T03:26:48.968Z,97346.00
2019-04-22T03:29:04.630Z,97339.00
2019-04-22T03:42:07.781Z,97348.00
2019-04-22T03:44:38.433Z,97320.00
2019-04-22T03:47:23.547Z,97329.00
2019-04-22T03:49:48.196Z,97324.00
2019-04-22T03:52:20.325Z,97322.00
2019-04-22T03:55:02.376Z,97334.00
2019-04-22T03:59:54.148Z,97321.00
2019-04-22T04:07:37.106Z,97315.00
2019-04-22T04:10:00.685Z,97309.00
2019-04-22T04:12:28.594Z,97311.00
2019-04-22T04:15:12.319Z,97306.00
2019-04-22T04:17:29.766Z,97303.00
2019-04-22T04:22:41.459Z,97307.00
2019-04-22T04:25:24.205Z,97298.00
2019-04-22T04:27:53.759Z,97299.00
2019-04-22T04:32:41.638Z,97298.00
2019-04-22T04:40:20.710Z,97288.00
2019-04-22T04:42:54.111Z,97299.00
2019-04-22T04:47:51.053Z,97290.00
2019-04-22T04:50:35.345Z,97304.00
2019-04-22T04:54:02.144Z,97291.00
2019-04-22T04:58:10.157Z,97297.00
2019-04-22T05:00:40.139Z,97299.00
2019-04-22T05:02:52.985Z,97298.00
2019-04-22T05:07:53.590Z,97295.00
2019-04-22T05:10:35.485Z,97287.00
2019-04-22T05:12:58.607Z,97292.00
2019-04-22T05:15:27.669Z,97288.00
2019-04-22T05:18:02.916Z,97291.00
2019-04-22T05:20:44.868Z,97291.00
2019-04-22T05:22:51.025Z,97290.00
2019-04-22T05:28:00.437Z,97283.00
2019-04-22T05:33:08.764Z,97277.00
2019-04-22T05:35:39.454Z,97280.00
2019-04-22T05:38:09.888Z,97271.00
2019-04-22T05:40:38.816Z,97271.00
2019-04-22T05:43:14.276Z,97274.00
2019-04-22T05:45:43.072Z,97268.00
2019-04-22T05:48:18.869Z,97264.00
2019-04-22T05:50:48.830Z,97261.00
2019-04-22T05:53:13.174Z,97270.00
2019-04-22T05:55:51.817Z,97255.00
2019-04-22T05:58:24.278Z,97275.00
2019-04-22T06:03:47.888Z,97261.00
2019-04-22T06:06:13.746Z,97256.00
2019-04-22T06:08:45.581Z,97260.00
2019-04-22T06:11:22.736Z,97260.00
2019-04-22T06:13:46.920Z,97255.00
2019-04-22T06:16:27.705Z,97252.00
2019-04-22T06:19:02.833Z,97247.00
2019-04-22T06:21:35.407Z,97257.00
2019-04-22T06:24:11.220Z,97244.00
2019-04-22T06:29:13.323Z,97236.00
2019-04-22T06:31:51.471Z,97244.00
2019-04-22T06:34:13.410Z,97241.00
2019-04-22T06:36:45.196Z,97238.00
2019-04-22T06:39:14.356Z,97233.00
2019-04-22T06:41:42.196Z,97238.00
2019-04-22T06:46:47.878Z,97228.00
2019-04-22T06:49:18.686Z,97224.00
2019-04-22T06:51:45.386Z,97220.00
2019-04-22T06:54:21.665Z,97228.00
2019-04-22T06:56:52.767Z,97228.00
2019-04-22T06:59:18.404Z,97223.00
2019-04-22T07:01:50.011Z,97228.00
2019-04-22T07:04:23.316Z,97223.00
2019-04-22T07:06:56.552Z,97219.00
2019-04-22T07:09:31.448Z,97217.00
2019-04-22T07:11:57.589Z,97208.00
2019-04-22T07:14:22.482Z,97213.00
2019-04-22T07:16:56.040Z,97217.00
2019-04-22T07:19:28.108Z,97209.00
2019-04-22T07:22:08.850Z,97218.00
2019-04-22T07:24:40.331Z,97204.00
2019-04-22T07:27:08.632Z,97209.00
2019-04-22T07:29:32.659Z,97215.00
2019-04-22T07:32:29.353Z,97195.00
2019-04-22T07:34:56.813Z,97218.00
2019-04-22T07:39:39.312Z,97200.00
2019-04-22T07:42:12.543Z,97188.00
2019-04-22T07:44:48.200Z,97186.00
2019-04-22T07:47:18.510Z,97190.00
2019-04-22T07:49:50.827Z,97182.00
2019-04-22T07:52:22.915Z,97175.00
2019-04-22T07:54:52.496Z,97187.00
2019-04-22T07:57:27.938Z,97180.00
2019-04-22T08:00:02.925Z,97184.00
2019-04-22T10:35:02.650Z,97014.00
2019-04-22T10:37:28.095Z,97006.00
2019-04-22T10:40:02.049Z,97001.00
2019-04-22T10:42:31.255Z,96998.00
2019-04-22T10:45:01.088Z,97008.00
2019-04-22T10:47:31.968Z,97010.00
2019-04-22T10:50:04.489Z,96983.00
2019-04-22T10:52:35.449Z,96992.00
2019-04-22T10:55:09.753Z,96988.00
2019-04-22T10:57:39.267Z,96983.00
2019-04-22T11:00:11.376Z,96975.00
2019-04-22T11:02:41.544Z,96970.00
2019-04-22T11:05:12.382Z,96971.00
2019-04-22T11:07:49.506Z,96961.00
2019-04-22T11:10:30.654Z,96955.00
2019-04-22T11:12:45.249Z,96958.00
2019-04-22T11:15:15.912Z,96952.00
2019-04-22T11:17:45.415Z,96961.00
2019-04-22T11:20:15.619Z,96956.00
2019-04-22T11:22:46.641Z,96955.00
2019-04-22T11:25:17.755Z,96953.00
2019-04-22T11:27:47.451Z,96930.00
2019-04-22T11:30:24.068Z,96933.00
2019-04-22T11:32:52.206Z,96937.00
2019-04-22T11:35:21.970Z,96932.00
2019-04-22T11:37:52.736Z,96926.00
2019-04-22T11:40:28.788Z,96926.00
2019-04-22T11:42:56.512Z,96926.00
2019-04-22T11:45:27.047Z,96913.00
2019-04-22T11:47:57.295Z,96918.00
2019-04-22T11:50:28.081Z,96916.00
2019-04-22T11:52:58.554Z,96911.00
2019-04-22T11:55:28.958Z,96898.00
2019-04-22T11:57:58.988Z,96883.00
2019-04-22T12:00:32.915Z,96919.00
2019-04-22T12:03:03.195Z,96897.00
2019-04-22T12:05:34.427Z,96889.00
2019-04-22T12:08:04.970Z,96897.00
2019-04-22T12:10:42.454Z,96888.00
2019-04-22T12:13:06.275Z,96892.00
2019-04-22T12:15:37.167Z,96887.00
2019-04-22T12:18:07.312Z,96869.00
2019-04-22T12:20:39.180Z,96872.00
2019-04-22T12:23:09.386Z,96871.00
2019-04-22T12:25:47.611Z,96863.00
2019-04-22T12:28:11.130Z,96852.00
2019-04-22T12:30:41.751Z,96855.00
2019-04-22T12:33:14.529Z,96853.00
2019-04-22T12:35:42.371Z,96858.00
2019-04-22T12:38:13.162Z,96849.00
2019-04-22T12:40:51.187Z,96834.00
2019-04-22T12:43:18.518Z,96849.00
2019-04-22T12:45:48.003Z,96830.00
2019-04-22T12:48:21.336Z,96816.00
2019-04-22T12:50:54.235Z,96822.00
2019-04-22T12:53:25.735Z,96829.00
2019-04-22T12:55:55.161Z,96819.00
2019-04-22T12:58:25.558Z,96805.00
2019-04-22T13:00:57.014Z,96810.00
2019-04-22T13:03:28.469Z,96791.00
2019-04-22T13:05:59.422Z,96809.00
2019-04-22T13:12:29.087Z,96798.00
2019-04-22T13:14:59.196Z,96803.00
2019-04-22T13:17:29.162Z,96798.00
2019-04-22T13:19:58.522Z,96788.00
2019-04-22T13:22:28.437Z,96794.00
2019-04-22T13:25:23.328Z,96803.00
2019-04-22T13:27:53.203Z,96788.00
2019-04-22T13:30:24.008Z,96785.00
2019-04-22T13:32:54.561Z,96788.00
2019-04-22T13:35:26.103Z,96786.00
2019-04-22T13:37:57.339Z,96767.00
2019-04-22T13:40:28.929Z,96779.00
2019-04-22T13:42:58.793Z,96776.00
2019-04-22T13:45:29.357Z,96768.00
2019-04-22T13:48:16.677Z,96763.00
2019-04-22T13:51:03.457Z,96760.00
2019-04-22T13:53:44.810Z,96762.00
2019-04-22T13:55:56.577Z,96759.00
2019-04-22T13:58:19.517Z,96755.00
2019-04-22T14:00:38.454Z,96740.00
2019-04-22T14:03:29.045Z,96746.00
2019-04-22T14:06:00.934Z,96744.00
2019-04-22T14:08:31.344Z,96732.00
2019-04-22T14:11:11.833Z,96729.00
2019-04-22T14:13:34.109Z,96724.00
2019-04-22T14:16:04.755Z,96724.00
2019-04-22T14:18:34.945Z,96714.00
2019-04-22T14:21:05.070Z,96716.00
2019-04-22T14:23:35.307Z,96725.00
2019-04-22T14:26:05.363Z,96720.00
2019-04-22T14:28:35.640Z,96728.00
2019-04-22T14:31:06.661Z,96723.00
2019-04-22T14:33:38.358Z,96718.00
2019-04-22T14:36:07.848Z,96716.00
2019-04-22T14:38:37.202Z,96716.00
2019-04-22T14:41:08.272Z,96694.00
2019-04-22T14:44:23.228Z,96704.00
2019-04-22T14:46:38.942Z,96691.00
2019-04-22T14:49:04.453Z,96682.00
2019-04-22T14:51:30.444Z,96691.00
2019-04-22T14:54:06.710Z,96677.00
2019-04-22T14:56:18.218Z,96671.00
2019-04-22T14:58:48.969Z,96676.00
2019-04-22T15:01:19.069Z,96683.00
2019-04-22T15:03:48.541Z,96683.00
2019-04-22T15:06:18.248Z,96684.00
2019-04-22T15:08:48.968Z,96675.00
2019-04-22T15:11:19.309Z,96671.00
2019-04-22T15:13:49.572Z,96665.00
2019-04-22T15:16:23.788Z,96672.00
2019-04-22T15:18:55.821Z,96666.00
2019-04-22T15:21:27.114Z,96655.00
2019-04-22T15:23:56.594Z,96655.00
2019-04-22T15:26:26.643Z,96663.00
2019-04-22T15:28:57.611Z,96660.00
2019-04-22T15:31:27.369Z,96661.00
2019-04-22T15:34:00.544Z,96638.00
2019-04-22T15:36:30.565Z,96651.00
2019-04-22T15:39:02.853Z,96644.00
2019-04-22T15:41:32.881Z,96652.00
2019-04-22T15:44:03.621Z,96635.00
2019-04-22T15:46:34.984Z,96639.00
2019-04-22T15:49:06.455Z,96647.00
2019-04-22T15:51:36.794Z,96638.00
2019-04-22T15:54:07.589Z,96647.00
2019-04-22T15:56:37.267Z,96639.00
2019-04-22T15:59:28.799Z,96633.00
2019-04-22T16:01:41.170Z,96630.00
2019-04-22T16:04:10.450Z,96637.00
2019-04-22T16:06:43.084Z,96636.00
2019-04-22T16:09:13.292Z,96642.00
2019-04-22T16:11:43.340Z,96639.00
2019-04-22T16:14:17.728Z,96644.00
2019-04-22T16:16:44.397Z,96636.00
2019-04-22T16:19:14.195Z,96640.00
2019-04-22T16:21:51.698Z,96635.00
2019-04-22T16:24:34.302Z,96633.00
2019-04-22T16:27:08.777Z,96643.00
2019-04-22T16:29:39.265Z,96638.00
2019-04-22T16:32:09.632Z,96641.00
2019-04-22T16:34:42.252Z,96628.00
2019-04-22T16:37:14.742Z,96627.00
2019-04-22T16:39:46.771Z,96623.00
2019-04-22T16:42:27.807Z,96629.00
2019-04-22T16:44:49.313Z,96624.00
2019-04-22T16:47:19.721Z,96626.00
2019-04-22T16:49:49.773Z,96616.00
2019-04-22T16:52:19.482Z,96606.00
2019-04-22T16:54:50.748Z,96616.00
2019-04-22T16:57:21.855Z,96599.00
2019-04-22T16:59:51.258Z,96604.00
2019-04-22T17:02:43.216Z,96603.00
2019-04-22T17:05:20.101Z,96607.00
2019-04-22T17:07:50.159Z,96606.00
2019-04-22T17:10:19.682Z,96612.00
2019-04-22T17:12:58.129Z,96613.00
2019-04-22T17:15:22.159Z,96607.00
2019-04-22T17:17:51.818Z,96618.00
2019-04-22T17:20:21.296Z,96614.00
2019-04-22T17:22:51.573Z,96615.00
2019-04-22T17:25:22.478Z,96610.00
2019-04-22T17:27:52.076Z,96600.00
2019-04-22T17:30:22.367Z,96605.00
2019-04-22T17:32:52.482Z,96603.00
2019-04-22T17:35:22.329Z,96613.00
2019-04-22T17:38:04.168Z,96604.00
2019-04-22T17:40:48.751Z,96600.00
2019-04-22T17:43:32.589Z,96603.00
2019-04-22T17:45:57.279Z,96614.00
2019-04-22T17:48:30.512Z,96602.00
2019-04-22T17:51:11.330Z,96608.00
2019-04-22T17:53:40.494Z,96606.00
2019-04-22T17:56:08.393Z,96618.00
2019-04-22T17:58:42.012Z,96604.00
2019-04-22T18:01:09.316Z,96617.00
2019-04-22T18:03:32.079Z,96616.00
2019-04-22T18:05:59.488Z,96610.00
2019-04-22T18:08:48.605Z,96612.00
2019-04-22T18:11:24.281Z,96611.00
2019-04-22T18:13:58.923Z,96597.00
2019-04-22T18:16:27.639Z,96617.00
2019-04-22T18:18:53.269Z,96611.00
2019-04-22T18:21:25.124Z,96617.00
2019-04-22T18:23:43.699Z,96611.00
2019-04-22T18:26:26.208Z,96607.00
2019-04-22T18:29:00.677Z,96613.00
2019-04-22T18:31:26.073Z,96624.00
2019-04-22T18:33:54.479Z,96621.00
2019-04-22T18:36:29.203Z,96619.00
2019-04-22T18:39:04.698Z,96635.00
2019-04-22T18:41:34.093Z,96637.00
2019-04-22T18:44:04.332Z,96638.00
2019-04-22T18:46:38.135Z,96638.00
2019-04-22T18:49:08.247Z,96648.00
2019-04-22T18:51:46.659Z,96645.00
2019-04-22T18:54:31.062Z,96639.00
2019-04-22T18:56:59.646Z,96638.00
2019-04-22T18:59:21.572Z,96634.00
2019-04-22T19:01:46.059Z,96635.00
2019-04-22T19:04:24.724Z,96642.00
2019-04-22T19:07:15.013Z,96642.00
2019-04-22T19:09:48.341Z,96635.00
2019-04-22T19:12:22.820Z,96648.00
2019-04-22T19:17:28.536Z,96645.00
2019-04-22T19:19:54.110Z,96641.00
2019-04-22T19:22:17.718Z,96648.00
2019-04-22T19:24:43.695Z,96646.00
2019-04-22T19:27:15.711Z,96652.00
2019-04-22T19:29:55.860Z,96645.00
2019-04-22T19:32:21.403Z,96643.00
2019-04-22T19:34:47.806Z,96654.00
2019-04-22T19:37:25.281Z,96639.00
2019-04-22T19:40:03.422Z,96641.00
2019-04-22T19:42:36.675Z,96654.00
2019-04-22T19:45:02.689Z,96648.00
2019-04-22T19:47:40.150Z,96658.00
2019-04-22T19:50:12.910Z,96655.00
2019-04-22T19:52:51.384Z,96667.00
2019-04-22T19:55:07.705Z,96658.00
2019-04-22T19:57:40.312Z,96666.00
2019-04-22T20:00:19.585Z,96659.00
2019-04-22T20:03:16.428Z,96672.00
2019-04-22T20:05:43.538Z,96663.00
2019-04-22T20:08:12.644Z,96663.00
2019-04-22T20:10:44.076Z,96658.00
2019-04-22T20:13:18.761Z,96657.00
2019-04-22T20:15:37.459Z,96648.00
2019-04-22T20:18:29.768Z,96654.00
2019-04-22T20:20:49.249Z,96640.00
2019-04-22T20:23:15.959Z,96647.00
2019-04-22T20:25:49.686Z,96639.00
2019-04-22T20:28:24.190Z,96641.00
2019-04-22T20:30:55.807Z,96642.00
2019-04-22T20:33:29.113Z,96643.00
2019-04-22T20:35:58.283Z,96638.00
2019-04-22T20:38:26.251Z,96645.00
2019-04-22T20:40:58.343Z,96632.00
2019-04-22T20:43:43.196Z,96642.00
2019-04-22T20:46:06.009Z,96632.00
2019-04-22T20:48:40.705Z,96631.00
2019-04-22T20:51:08.791Z,96625.00
2019-04-22T20:53:44.207Z,96622.00
2019-04-22T20:56:10.155Z,96634.00
2019-04-22T20:58:42.203Z,96632.00
2019-04-22T21:01:06.760Z,96615.00
2019-04-22T21:03:29.403Z,96619.00
2019-04-22T21:06:15.002Z,96615.00
2019-04-22T21:08:48.658Z,96608.00
2019-04-22T21:11:19.638Z,96615.00
2019-04-22T21:13:48.620Z,96616.00
2019-04-22T21:16:31.465Z,96612.00
2019-04-22T21:18:47.345Z,96605.00
2019-04-22T21:21:29.694Z,96603.00
2019-04-22T21:23:48.583Z,96598.00
2019-04-22T21:26:24.262Z,96608.00
2019-04-22T21:28:56.640Z,96596.00
2019-04-22T21:31:34.022Z,96595.00
2019-04-22T21:33:59.407Z,96600.00
2019-04-22T21:36:40.162Z,96592.00
2019-04-22T21:39:03.812Z,96583.00
2019-04-22T21:41:34.124Z,96602.00
2019-04-22T21:44:29.630Z,96607.00
2019-04-22T21:47:03.382Z,96593.00
2019-04-22T21:49:31.059Z,96595.00
2019-04-22T21:52:01.229Z,96586.00
2019-04-22T21:54:31.625Z,96604.00
2019-04-22T21:59:33.310Z,96594.00
2019-04-22T22:02:11.800Z,96579.00
2019-04-22T22:04:40.668Z,96588.00
2019-04-22T22:07:03.210Z,96583.00
2019-04-22T22:09:49.013Z,96584.00
2019-04-22T22:12:13.165Z,96578.00
2019-04-22T22:14:50.130Z,96576.00
2019-04-22T22:17:18.668Z,96578.00
2019-04-22T22:19:49.601Z,96591.00
2019-04-22T22:23:09.166Z,96579.00
2019-04-22T22:25:00.010Z,96569.00
2019-04-22T22:27:25.482Z,96566.00
2019-04-22T22:30:06.617Z,96569.00
2019-04-22T22:32:30.303Z,96562.00
2019-04-22T22:35:01.280Z,96555.00
2019-04-22T22:37:22.833Z,96563.00
2019-04-22T22:39:53.934Z,96548.00
2019-04-22T22:42:22.499Z,96546.00
2019-04-22T22:44:48.137Z,96555.00
2019-04-22T22:47:30.485Z,96548.00
2019-04-22T22:50:03.041Z,96540.00
2019-04-22T22:52:51.759Z,96539.00
2019-04-22T22:55:12.020Z,96536.00
2019-04-22T22:57:39.988Z,96533.00
2019-04-22T23:00:11.478Z,96523.00
2019-04-22T23:02:47.217Z,96532.00
2019-04-22T23:05:15.444Z,96515.00
2019-04-22T23:07:50.637Z,96522.00
2019-04-22T23:10:17.108Z,96513.00
2019-04-22T23:13:08.516Z,96509.00
2019-04-22T23:15:20.426Z,96511.00
2019-04-22T23:17:34.219Z,96516.00
2019-04-22T23:20:03.810Z,96510.00
2019-04-22T23:23:06.418Z,96498.00
2019-04-22T23:25:33.237Z,96495.00
2019-04-22T23:28:15.600Z,96485.00
2019-04-22T23:30:57.146Z,96477.00
2019-04-22T23:33:46.344Z,96472.00
2019-04-22T23:36:19.427Z,96480.00
2019-04-22T23:39:02.474Z,96471.00
2019-04-22T23:46:48.412Z,96462.00
2019-04-22T23:49:17.996Z,96461.00
2019-04-22T23:52:02.759Z,96459.00
2019-04-22T23:54:31.587Z,96450.00
2019-04-22T23:56:53.996Z,96449.00
2019-04-22T23:59:38.294Z,96445.00
